createdAt,value
2023-02-08T00:01:10.666Z,90.80
2023-02-08T00:04:34.556Z,90.90
2023-02-08T00:07:58.114Z,90.90
2023-02-08T00:11:24.728Z,90.90
2023-02-08T00:14:49.928Z,90.80
2023-02-08T00:18:16.183Z,90.70
2023-02-08T00:21:40.620Z,90.80
2023-02-08T00:25:04.616Z,90.80
2023-02-08T00:28:28.742Z,90.70
2023-02-08T00:31:54.503Z,90.70
2023-02-08T00:35:18.681Z,90.60
2023-02-08T00:38:45.746Z,90.60
2023-02-08T00:42:11.772Z,90.50
2023-02-08T00:45:36.589Z,90.50
2023-02-08T00:49:05.531Z,90.50
2023-02-08T00:52:30.613Z,90.50
2023-02-08T00:55:55.189Z,90.50
2023-02-08T00:59:19.556Z,90.50
2023-02-08T01:02:43.848Z,90.50
2023-02-08T01:06:11.824Z,90.50
2023-02-08T01:09:36.117Z,90.40
2023-02-08T01:13:01.731Z,90.50
2023-02-08T01:16:30.769Z,90.40
2023-02-08T01:19:56.637Z,90.30
2023-02-08T01:23:22.037Z,90.30
2023-02-08T01:26:45.867Z,90.30
2023-02-08T01:30:10.874Z,90.20
2023-02-08T01:33:34.478Z,90.10
2023-02-08T01:36:58.696Z,90.20
2023-02-08T01:40:24.056Z,90.20
2023-02-08T01:44:08.342Z,90.30
2023-02-08T01:47:32.014Z,90.30
2023-02-08T01:50:59.220Z,90.30
2023-02-08T01:54:26.337Z,90.30
2023-02-08T01:57:55.436Z,90.30
2023-02-08T02:01:24.969Z,90.20
2023-02-08T02:04:52.037Z,90.30
2023-02-08T02:08:16.834Z,90.30
2023-02-08T02:11:40.788Z,90.30
2023-02-08T02:15:07.685Z,90.40
2023-02-08T02:18:34.621Z,90.30
2023-02-08T02:22:07.762Z,90.40
2023-02-08T02:26:09.391Z,90.40
2023-02-08T02:29:57.095Z,90.20
2023-02-08T02:33:54.927Z,90.20
2023-02-08T02:37:35.062Z,90.30
2023-02-08T02:41:08.735Z,90.30
2023-02-08T02:44:39.331Z,90.30
2023-02-08T02:48:13.260Z,90.50
2023-02-08T02:51:48.391Z,90.50
2023-02-08T02:55:16.569Z,90.40
2023-02-08T02:58:44.048Z,90.50
2023-02-08T03:02:08.811Z,90.50
2023-02-08T03:05:32.812Z,90.50
2023-02-08T03:09:20.261Z,90.50
2023-02-08T03:12:56.187Z,90.50
2023-02-08T03:16:22.074Z,90.50
2023-02-08T03:19:57.132Z,90.60
2023-02-08T03:23:27.749Z,90.60
2023-02-08T03:26:59.040Z,90.60
2023-02-08T03:30:28.869Z,90.50
2023-02-08T03:33:59.120Z,90.40
2023-02-08T03:37:28.458Z,90.50
2023-02-08T03:40:55.733Z,90.70
2023-02-08T03:44:26.441Z,90.70
2023-02-08T03:47:54.757Z,90.70
2023-02-08T03:51:22.407Z,90.80
2023-02-08T03:54:59.928Z,90.70
2023-02-08T03:58:27.924Z,90.70
2023-02-08T04:01:59.057Z,90.60
2023-02-08T04:05:24.480Z,90.70
2023-02-08T04:08:48.579Z,90.60
2023-02-08T04:12:13.168Z,90.60
2023-02-08T04:15:36.793Z,90.30
2023-02-08T04:19:05.276Z,90.30
2023-02-08T04:22:29.827Z,90.20
2023-02-08T04:25:53.840Z,90.20
2023-02-08T04:29:17.899Z,90.20
2023-02-08T04:32:41.824Z,90.00
2023-02-08T04:36:07.830Z,90.10
2023-02-08T04:39:31.541Z,89.50
2023-02-08T04:42:55.823Z,89.80
2023-02-08T04:46:19.917Z,89.70
2023-02-08T04:49:43.523Z,89.50
2023-02-08T04:53:09.416Z,88.70
2023-02-08T04:56:33.895Z,87.00
2023-02-08T05:00:00.048Z,87.10
2023-02-08T05:03:28.164Z,87.40
2023-02-08T05:06:51.907Z,87.40
2023-02-08T05:10:17.871Z,87.20
2023-02-08T05:13:42.072Z,87.10
2023-02-08T05:17:07.010Z,86.80
2023-02-08T05:20:31.012Z,86.90
2023-02-08T05:24:03.391Z,86.70
2023-02-08T05:27:29.806Z,86.80
2023-02-08T05:30:54.036Z,86.70
2023-02-08T05:34:18.077Z,86.80
2023-02-08T05:37:44.255Z,86.60
2023-02-08T05:41:07.996Z,86.60
2023-02-08T05:44:33.290Z,86.50
2023-02-08T05:48:02.474Z,86.70
2023-02-08T05:51:29.062Z,87.00
2023-02-08T05:54:55.377Z,86.90
2023-02-08T05:58:20.207Z,86.90
2023-02-08T06:01:47.684Z,87.10
2023-02-08T06:05:12.040Z,87.20
2023-02-08T06:08:36.199Z,87.40
2023-02-08T06:12:00.036Z,87.50
2023-02-08T06:15:24.091Z,87.60
2023-02-08T06:18:49.350Z,87.50
2023-02-08T06:22:13.051Z,87.70
2023-02-08T06:25:36.950Z,88.80
2023-02-08T06:29:01.606Z,88.20
2023-02-08T06:32:26.358Z,88.40
2023-02-08T06:35:53.457Z,88.40
2023-02-08T06:39:18.041Z,88.40
2023-02-08T06:42:44.082Z,88.50
2023-02-08T06:46:08.682Z,88.30
2023-02-08T06:49:37.987Z,88.50
2023-02-08T06:53:03.100Z,88.80
2023-02-08T06:56:27.017Z,88.90
2023-02-08T06:59:51.116Z,89.20
2023-02-08T07:03:16.149Z,89.60
2023-02-08T07:06:40.438Z,90.10
2023-02-08T07:10:08.682Z,89.40
2023-02-08T07:13:33.430Z,89.70
2023-02-08T07:16:59.307Z,90.20
2023-02-08T07:20:31.642Z,89.90
2023-02-08T07:23:58.744Z,89.70
2023-02-08T07:27:27.501Z,89.40
2023-02-08T07:30:53.565Z,89.60
2023-02-08T07:34:21.653Z,89.40
2023-02-08T07:37:45.343Z,89.10
2023-02-08T07:41:10.986Z,89.00
2023-02-08T07:44:37.760Z,88.40
2023-02-08T07:48:01.742Z,87.90
2023-02-08T07:51:25.798Z,87.50
2023-02-08T07:54:49.620Z,87.80
2023-02-08T07:58:24.553Z,88.00
2023-02-08T08:01:49.931Z,87.90
2023-02-08T08:05:15.103Z,88.00
2023-02-08T08:08:39.679Z,90.10
2023-02-08T08:12:04.256Z,91.70
2023-02-08T08:15:29.076Z,84.40
2023-02-08T08:18:54.503Z,62.50
2023-02-08T08:22:18.533Z,57.70
2023-02-08T08:25:42.137Z,54.10
2023-02-08T08:29:06.372Z,50.70
2023-02-08T08:32:29.930Z,48.70
2023-02-08T08:35:54.813Z,48.50
2023-02-08T08:39:18.448Z,47.20
2023-02-08T08:42:42.003Z,47.00
2023-02-08T08:46:06.962Z,46.00
2023-02-08T08:49:31.293Z,47.10
2023-02-08T08:52:56.739Z,44.80
2023-02-08T08:56:20.599Z,40.80
2023-02-08T08:59:44.332Z,39.30
2023-02-08T09:03:08.255Z,37.40
2023-02-08T09:06:32.346Z,37.10
2023-02-08T09:09:57.656Z,35.90
2023-02-08T09:13:21.758Z,36.60
2023-02-08T09:16:47.885Z,35.60
2023-02-08T09:20:12.548Z,35.70
2023-02-08T09:23:36.376Z,33.30
2023-02-08T09:27:01.465Z,32.80
2023-02-08T09:30:25.196Z,31.90
2023-02-08T09:33:50.295Z,31.60
2023-02-08T09:37:14.310Z,31.50
2023-02-08T09:40:46.182Z,32.60
2023-02-08T09:44:21.909Z,31.50
2023-02-08T09:47:52.312Z,31.90
2023-02-08T09:51:25.235Z,32.30
2023-02-08T09:54:55.070Z,37.10
2023-02-08T09:58:24.815Z,36.90
2023-02-08T10:01:52.562Z,37.50
2023-02-08T10:05:21.233Z,37.90
2023-02-08T10:08:46.846Z,35.80
2023-02-08T10:12:20.716Z,33.60
2023-02-08T10:15:50.565Z,35.00
2023-02-08T10:19:29.124Z,33.30
2023-02-08T10:23:04.964Z,32.00
2023-02-08T10:26:38.066Z,32.80
2023-02-08T10:30:29.590Z,33.50
2023-02-08T10:34:02.886Z,33.90
2023-02-08T10:37:34.407Z,31.50
2023-02-08T10:41:00.839Z,31.00
2023-02-08T10:44:31.451Z,31.50
2023-02-08T10:47:57.781Z,30.70
2023-02-08T10:51:22.040Z,32.40
2023-02-08T10:54:47.198Z,32.70
2023-02-08T10:58:18.127Z,33.40
2023-02-08T11:01:42.105Z,34.60
2023-02-08T11:05:08.797Z,36.60
2023-02-08T11:08:35.435Z,37.10
2023-02-08T11:12:02.887Z,36.20
2023-02-08T11:15:29.063Z,36.60
2023-02-08T11:18:56.839Z,36.40
2023-02-08T11:22:24.078Z,37.10
2023-02-08T11:25:48.363Z,38.60
2023-02-08T11:29:18.506Z,39.90
2023-02-08T11:32:44.015Z,39.60
2023-02-08T11:36:09.993Z,41.20
2023-02-08T11:39:39.275Z,42.70
2023-02-08T11:43:03.902Z,42.30
2023-02-08T11:46:30.266Z,43.30
2023-02-08T11:49:56.151Z,44.20
2023-02-08T11:53:27.845Z,45.20
2023-02-08T11:57:02.777Z,45.20
2023-02-08T12:00:29.290Z,46.00
2023-02-08T12:03:56.690Z,46.30
2023-02-08T12:07:28.515Z,46.10
2023-02-08T12:11:17.705Z,46.10
2023-02-08T12:14:59.343Z,45.30
2023-02-08T12:18:40.335Z,45.20
2023-02-08T12:22:10.693Z,46.80
2023-02-08T12:25:43.274Z,48.20
2023-02-08T12:29:25.864Z,47.80
2023-02-08T12:33:16.745Z,45.40
2023-02-08T12:37:17.501Z,46.40
2023-02-08T12:40:52.843Z,46.20
2023-02-08T12:44:26.838Z,46.40
2023-02-08T12:48:05.171Z,45.70
2023-02-08T12:51:35.682Z,45.80
2023-02-08T12:55:03.938Z,46.00
2023-02-08T12:58:31.138Z,46.30
2023-02-08T13:02:00.729Z,47.80
2023-02-08T13:05:32.583Z,48.10
2023-02-08T13:09:02.052Z,47.00
2023-02-08T13:12:30.438Z,47.90
2023-02-08T13:15:59.414Z,48.30
2023-02-08T13:19:27.811Z,47.70
2023-02-08T13:22:54.118Z,47.10
2023-02-08T13:26:21.384Z,47.30
2023-02-08T13:29:47.240Z,47.20
2023-02-08T13:33:18.792Z,47.00
2023-02-08T13:36:51.496Z,46.40
2023-02-08T13:40:21.881Z,46.70
2023-02-08T13:43:52.315Z,46.50
2023-02-08T13:47:25.712Z,46.60
2023-02-08T13:50:52.854Z,46.50
2023-02-08T13:54:16.576Z,45.30
2023-02-08T13:57:55.188Z,44.80
2023-02-08T14:01:22.228Z,45.00
2023-02-08T14:04:46.991Z,45.30
2023-02-08T14:08:21.715Z,44.60
2023-02-08T14:11:49.802Z,43.90
2023-02-08T14:15:40.917Z,44.40
2023-02-08T14:19:06.580Z,44.00
2023-02-08T14:22:35.752Z,44.50
2023-02-08T14:26:06.524Z,45.00
2023-02-08T14:29:30.608Z,45.10
2023-02-08T14:33:09.496Z,44.40
2023-02-08T14:36:36.355Z,44.10
2023-02-08T14:40:36.168Z,44.40
2023-02-08T14:44:21.238Z,44.30
2023-02-08T14:48:18.907Z,44.20
2023-02-08T14:51:46.700Z,44.70
2023-02-08T14:55:17.295Z,43.70
2023-02-08T14:58:45.076Z,43.70
2023-02-08T15:02:16.802Z,42.50
2023-02-08T15:05:59.558Z,42.60
2023-02-08T15:09:25.499Z,43.50
2023-02-08T15:12:52.428Z,43.40
2023-02-08T15:16:16.197Z,43.10
2023-02-08T15:19:43.131Z,43.40
2023-02-08T15:23:19.024Z,44.30
2023-02-08T15:26:46.696Z,43.10
2023-02-08T15:30:28.091Z,42.90
2023-02-08T15:33:54.106Z,43.10
2023-02-08T15:37:19.989Z,43.40
2023-02-08T15:40:43.965Z,44.00
2023-02-08T15:44:18.579Z,44.70
2023-02-08T15:47:42.310Z,43.90
2023-02-08T15:51:08.159Z,44.50
2023-02-08T15:54:33.599Z,44.80
2023-02-08T15:58:02.400Z,44.90
2023-02-08T16:01:26.911Z,45.10
2023-02-08T16:04:50.787Z,45.70
2023-02-08T16:08:22.333Z,46.10
2023-02-08T16:11:49.801Z,45.60
2023-02-08T16:15:38.823Z,45.50
2023-02-08T16:19:04.154Z,45.10
2023-02-08T16:22:32.666Z,45.50
2023-02-08T16:25:57.558Z,46.10
2023-02-08T16:29:26.080Z,46.10
2023-02-08T16:32:50.712Z,46.80
2023-02-08T16:36:23.250Z,46.70
2023-02-08T16:39:55.163Z,47.50
2023-02-08T16:43:24.838Z,48.30
2023-02-08T16:46:49.898Z,49.30
2023-02-08T16:50:15.517Z,51.20
2023-02-08T16:53:42.292Z,53.10
2023-02-08T16:57:06.055Z,53.50
2023-02-08T17:00:31.957Z,54.00
2023-02-08T17:03:56.933Z,56.10
2023-02-08T17:07:20.638Z,55.50
2023-02-08T17:10:45.470Z,56.00
2023-02-08T17:14:10.994Z,55.50
2023-02-08T17:17:34.596Z,55.80
2023-02-08T17:21:00.693Z,53.40
2023-02-08T17:24:24.718Z,55.20
2023-02-08T17:27:50.879Z,53.80
2023-02-08T17:31:15.452Z,52.20
2023-02-08T17:34:39.650Z,51.90
2023-02-08T17:38:05.299Z,51.90
2023-02-08T17:41:29.231Z,51.40
2023-02-08T17:44:52.731Z,50.50
2023-02-08T17:48:17.579Z,49.30
2023-02-08T17:51:41.155Z,48.60
2023-02-08T17:55:07.435Z,48.10
2023-02-08T17:58:34.410Z,48.70
2023-02-08T18:01:58.132Z,48.70
2023-02-08T18:05:26.202Z,48.70
2023-02-08T18:08:49.783Z,49.20
2023-02-08T18:12:15.247Z,49.10
2023-02-08T18:15:38.874Z,49.00
2023-02-08T18:19:02.643Z,49.30
2023-02-08T18:22:26.546Z,50.90
2023-02-08T18:25:50.192Z,51.30
2023-02-08T18:29:15.088Z,50.80
2023-02-08T18:32:39.478Z,50.90
2023-02-08T18:36:03.648Z,50.30
2023-02-08T18:39:27.629Z,49.20
2023-02-08T18:42:51.351Z,48.10
2023-02-08T18:46:20.194Z,46.80
2023-02-08T18:49:43.795Z,45.90
2023-02-08T18:53:07.371Z,45.50
2023-02-08T18:56:33.040Z,44.30
2023-02-08T18:59:56.877Z,44.10
2023-02-08T19:03:22.847Z,43.90
2023-02-08T19:06:46.409Z,43.90
2023-02-08T19:10:10.268Z,44.40
2023-02-08T19:13:35.405Z,44.40
2023-02-08T19:16:59.055Z,44.30
2023-02-08T19:20:24.041Z,44.40
2023-02-08T19:23:48.597Z,44.20
2023-02-08T19:27:12.231Z,44.60
2023-02-08T19:30:35.847Z,44.60
2023-02-08T19:34:01.023Z,44.70
2023-02-08T19:37:26.062Z,45.20
2023-02-08T19:40:53.977Z,45.20
2023-02-08T19:44:19.456Z,45.60
2023-02-08T19:47:50.995Z,45.80
2023-02-08T19:51:15.177Z,45.90
2023-02-08T19:54:40.085Z,46.10
2023-02-08T19:58:04.122Z,46.30
2023-02-08T20:01:27.889Z,46.30
2023-02-08T20:04:51.703Z,46.30
2023-02-08T20:08:15.410Z,46.90
2023-02-08T20:11:56.416Z,47.40
2023-02-08T20:15:20.921Z,47.10
2023-02-08T20:18:44.661Z,47.50
2023-02-08T20:22:08.244Z,48.10
2023-02-08T20:25:32.886Z,48.00
2023-02-08T20:28:59.802Z,47.70
2023-02-08T20:32:23.544Z,47.80
2023-02-08T20:35:47.388Z,48.50
2023-02-08T20:39:14.625Z,48.50
2023-02-08T20:42:38.445Z,48.80
2023-02-08T20:46:07.100Z,48.80
2023-02-08T20:49:32.106Z,50.20
2023-02-08T20:52:55.715Z,50.30
2023-02-08T20:56:21.206Z,50.00
2023-02-08T20:59:45.505Z,50.70
2023-02-08T21:03:10.499Z,51.20
2023-02-08T21:06:36.600Z,51.60
2023-02-08T21:10:01.978Z,52.30
2023-02-08T21:13:25.596Z,52.60
2023-02-08T21:16:51.166Z,52.60
2023-02-08T21:20:16.166Z,52.40
2023-02-08T21:23:39.768Z,53.10
2023-02-08T21:27:03.426Z,53.20
2023-02-08T21:30:30.601Z,54.10
2023-02-08T21:33:56.987Z,54.10
2023-02-08T21:37:21.956Z,54.60
2023-02-08T21:40:45.862Z,55.00
2023-02-08T21:44:10.149Z,54.70
2023-02-08T21:47:33.764Z,54.80
2023-02-08T21:51:18.946Z,55.00
2023-02-08T21:54:45.607Z,55.90
2023-02-08T21:58:09.800Z,56.40
2023-02-08T22:01:33.508Z,56.50
2023-02-08T22:05:16.770Z,57.10
2023-02-08T22:08:40.347Z,57.50
2023-02-08T22:12:05.781Z,55.90
2023-02-08T22:15:30.406Z,55.20
2023-02-08T22:18:54.052Z,54.50
2023-02-08T22:22:17.993Z,54.70
2023-02-08T22:25:41.579Z,55.10
2023-02-08T22:29:10.088Z,55.60
2023-02-08T22:32:34.153Z,55.80
2023-02-08T22:35:58.085Z,56.20
2023-02-08T22:39:24.827Z,56.50
2023-02-08T22:42:49.089Z,56.70
2023-02-08T22:46:14.546Z,57.40
2023-02-08T22:49:39.583Z,57.40
2023-02-08T22:53:03.182Z,58.00
2023-02-08T22:56:27.195Z,59.30
2023-02-08T22:59:51.196Z,59.80
2023-02-08T23:03:18.328Z,59.70
2023-02-08T23:06:42.079Z,60.20
2023-02-08T23:10:06.473Z,60.50
2023-02-08T23:13:30.878Z,61.30
2023-02-08T23:16:55.721Z,62.60
2023-02-08T23:20:21.518Z,62.70
2023-02-08T23:23:48.029Z,63.20
2023-02-08T23:27:11.556Z,63.50
2023-02-08T23:30:36.410Z,63.70
2023-02-08T23:34:02.567Z,64.20
2023-02-08T23:37:28.484Z,64.70
2023-02-08T23:40:54.708Z,65.00
2023-02-08T23:44:19.169Z,65.50
2023-02-08T23:47:43.166Z,66.30
2023-02-08T23:51:08.893Z,66.40
2023-02-08T23:54:34.492Z,67.80
2023-02-08T23:57:58.124Z,66.90
